sensor_id;sensor_type;location;lat;lon;timestamp;temperature;humidity
41294;DHT22;27037;52.010;4.446;2022-09-09T00:04:41;16.70;99.90
41294;DHT22;27037;52.010;4.446;2022-09-09T00:12:50;16.70;99.90
41294;DHT22;27037;52.010;4.446;2022-09-09T00:15:19;16.70;99.90
41294;DHT22;27037;52.010;4.446;2022-09-09T00:18:09;16.60;99.90
41294;DHT22;27037;52.010;4.446;2022-09-09T00:23:30;16.70;99.90
41294;DHT22;27037;52.010;4.446;2022-09-09T00:26:26;16.70;99.90
41294;DHT22;27037;52.010;4.446;2022-09-09T00:31:30;16.70;99.90
41294;DHT22;27037;52.010;4.446;2022-09-09T00:34:05;16.60;99.90
41294;DHT22;27037;52.010;4.446;2022-09-09T00:36:35;16.60;99.90
41294;DHT22;27037;52.010;4.446;2022-09-09T00:39:03;16.60;99.90
41294;DHT22;27037;52.010;4.446;2022-09-09T00:44:00;16.60;99.90
41294;DHT22;27037;52.010;4.446;2022-09-09T00:57:33;16.50;99.90
41294;DHT22;27037;52.010;4.446;2022-09-09T01:00:34;16.50;99.90
41294;DHT22;27037;52.010;4.446;2022-09-09T01:11:02;16.40;99.90
41294;DHT22;27037;52.010;4.446;2022-09-09T01:13:30;16.40;99.90
41294;DHT22;27037;52.010;4.446;2022-09-09T01:15:58;16.40;99.90
41294;DHT22;27037;52.010;4.446;2022-09-09T01:18:29;16.40;99.90
41294;DHT22;27037;52.010;4.446;2022-09-09T01:26:53;16.40;99.90
41294;DHT22;27037;52.010;4.446;2022-09-09T01:29:16;16.40;99.90
41294;DHT22;27037;52.010;4.446;2022-09-09T01:32:36;16.40;99.90
41294;DHT22;27037;52.010;4.446;2022-09-09T01:34:38;16.40;99.90
41294;DHT22;27037;52.010;4.446;2022-09-09T01:37:09;16.40;99.90
41294;DHT22;27037;52.010;4.446;2022-09-09T01:39:38;16.40;99.90
41294;DHT22;27037;52.010;4.446;2022-09-09T01:42:09;16.40;99.90
41294;DHT22;27037;52.010;4.446;2022-09-09T01:44:37;16.30;99.90
41294;DHT22;27037;52.010;4.446;2022-09-09T01:47:04;16.30;99.90
41294;DHT22;27037;52.010;4.446;2022-09-09T01:49:30;16.30;99.90
41294;DHT22;27037;52.010;4.446;2022-09-09T01:51:58;16.30;99.90
41294;DHT22;27037;52.010;4.446;2022-09-09T01:54:27;16.30;99.90
41294;DHT22;27037;52.010;4.446;2022-09-09T01:57:18;16.30;99.90
41294;DHT22;27037;52.010;4.446;2022-09-09T02:00:06;16.30;99.90
41294;DHT22;27037;52.010;4.446;2022-09-09T02:05:27;16.30;99.90
41294;DHT22;27037;52.010;4.446;2022-09-09T02:08:03;16.30;99.90
41294;DHT22;27037;52.010;4.446;2022-09-09T02:13:04;16.30;99.90
41294;DHT22;27037;52.010;4.446;2022-09-09T02:18:07;16.30;99.90
41294;DHT22;27037;52.010;4.446;2022-09-09T02:20:36;16.30;99.90
41294;DHT22;27037;52.010;4.446;2022-09-09T02:23:04;16.30;99.90
41294;DHT22;27037;52.010;4.446;2022-09-09T02:25:30;16.30;99.90
41294;DHT22;27037;52.010;4.446;2022-09-09T02:27:58;16.30;99.90
41294;DHT22;27037;52.010;4.446;2022-09-09T02:30:24;16.30;99.90
41294;DHT22;27037;52.010;4.446;2022-09-09T02:32:52;16.30;99.90
41294;DHT22;27037;52.010;4.446;2022-09-09T02:35:23;16.30;99.90
41294;DHT22;27037;52.010;4.446;2022-09-09T02:37:51;16.30;99.90
41294;DHT22;27037;52.010;4.446;2022-09-09T02:40:18;16.20;99.90
41294;DHT22;27037;52.010;4.446;2022-09-09T02:42:46;16.20;99.90
41294;DHT22;27037;52.010;4.446;2022-09-09T02:45:15;16.20;99.90
41294;DHT22;27037;52.010;4.446;2022-09-09T02:50:13;16.20;99.90
41294;DHT22;27037;52.010;4.446;2022-09-09T02:52:55;16.20;99.90
41294;DHT22;27037;52.010;4.446;2022-09-09T02:55:36;16.20;99.90
41294;DHT22;27037;52.010;4.446;2022-09-09T02:58:06;16.20;99.90
41294;DHT22;27037;52.010;4.446;2022-09-09T03:00:33;16.10;99.90
41294;DHT22;27037;52.010;4.446;2022-09-09T03:03:02;16.10;99.90
41294;DHT22;27037;52.010;4.446;2022-09-09T03:05:28;16.10;99.90
41294;DHT22;27037;52.010;4.446;2022-09-09T03:07:53;16.10;99.90
41294;DHT22;27037;52.010;4.446;2022-09-09T03:10:19;16.10;99.90
41294;DHT22;27037;52.010;4.446;2022-09-09T03:12:44;16.10;99.90
41294;DHT22;27037;52.010;4.446;2022-09-09T03:15:10;16.10;99.90
41294;DHT22;27037;52.010;4.446;2022-09-09T03:17:36;16.10;99.90
41294;DHT22;27037;52.010;4.446;2022-09-09T03:20:03;16.00;99.90
41294;DHT22;27037;52.010;4.446;2022-09-09T03:22:29;16.00;99.90
41294;DHT22;27037;52.010;4.446;2022-09-09T03:24:55;16.00;99.90
41294;DHT22;27037;52.010;4.446;2022-09-09T03:27:20;16.00;99.90
41294;DHT22;27037;52.010;4.446;2022-09-09T03:29:46;16.00;99.90
41294;DHT22;27037;52.010;4.446;2022-09-09T03:32:12;16.00;99.90
41294;DHT22;27037;52.010;4.446;2022-09-09T03:34:38;16.00;99.90
41294;DHT22;27037;52.010;4.446;2022-09-09T03:37:05;16.00;99.90
41294;DHT22;27037;52.010;4.446;2022-09-09T03:39:31;16.00;99.90
41294;DHT22;27037;52.010;4.446;2022-09-09T03:41:57;16.00;99.90
41294;DHT22;27037;52.010;4.446;2022-09-09T03:44:22;16.00;99.90
41294;DHT22;27037;52.010;4.446;2022-09-09T03:46:48;16.00;99.90
41294;DHT22;27037;52.010;4.446;2022-09-09T03:49:13;16.00;99.90
41294;DHT22;27037;52.010;4.446;2022-09-09T03:51:40;16.00;99.90
41294;DHT22;27037;52.010;4.446;2022-09-09T03:54:07;15.90;99.90
41294;DHT22;27037;52.010;4.446;2022-09-09T03:56:35;16.00;99.90
41294;DHT22;27037;52.010;4.446;2022-09-09T03:59:01;15.90;99.90
41294;DHT22;27037;52.010;4.446;2022-09-09T04:01:27;15.90;99.90
41294;DHT22;27037;52.010;4.446;2022-09-09T04:03:53;15.90;99.90
41294;DHT22;27037;52.010;4.446;2022-09-09T04:06:19;15.90;99.90
41294;DHT22;27037;52.010;4.446;2022-09-09T04:08:46;15.90;99.90
41294;DHT22;27037;52.010;4.446;2022-09-09T04:11:14;15.90;99.90
41294;DHT22;27037;52.010;4.446;2022-09-09T04:13:41;15.90;99.90
41294;DHT22;27037;52.010;4.446;2022-09-09T04:16:08;15.90;99.90
41294;DHT22;27037;52.010;4.446;2022-09-09T04:18:35;15.90;99.90
41294;DHT22;27037;52.010;4.446;2022-09-09T04:21:01;15.90;99.90
41294;DHT22;27037;52.010;4.446;2022-09-09T04:23:28;15.90;99.90
41294;DHT22;27037;52.010;4.446;2022-09-09T04:25:58;15.90;99.90
41294;DHT22;27037;52.010;4.446;2022-09-09T04:28:26;15.90;99.90
41294;DHT22;27037;52.010;4.446;2022-09-09T04:30:51;15.90;99.90
41294;DHT22;27037;52.010;4.446;2022-09-09T04:33:18;15.90;99.90
41294;DHT22;27037;52.010;4.446;2022-09-09T04:35:45;15.90;99.90
41294;DHT22;27037;52.010;4.446;2022-09-09T04:38:12;15.90;99.90
41294;DHT22;27037;52.010;4.446;2022-09-09T04:40:39;15.80;99.90
41294;DHT22;27037;52.010;4.446;2022-09-09T04:43:08;15.80;99.90
41294;DHT22;27037;52.010;4.446;2022-09-09T04:45:34;15.90;99.90
41294;DHT22;27037;52.010;4.446;2022-09-09T04:48:00;15.80;99.90
41294;DHT22;27037;52.010;4.446;2022-09-09T04:50:26;15.80;99.90
41294;DHT22;27037;52.010;4.446;2022-09-09T04:52:51;15.80;99.90
41294;DHT22;27037;52.010;4.446;2022-09-09T04:55:17;15.80;99.90
41294;DHT22;27037;52.010;4.446;2022-09-09T04:57:43;15.80;99.90
41294;DHT22;27037;52.010;4.446;2022-09-09T05:00:09;15.80;99.90
41294;DHT22;27037;52.010;4.446;2022-09-09T05:02:39;15.80;99.90
41294;DHT22;27037;52.010;4.446;2022-09-09T05:05:05;15.80;99.90
41294;DHT22;27037;52.010;4.446;2022-09-09T05:07:31;15.80;99.90
41294;DHT22;27037;52.010;4.446;2022-09-09T05:09:57;15.80;99.90
41294;DHT22;27037;52.010;4.446;2022-09-09T05:12:23;15.80;99.90
41294;DHT22;27037;52.010;4.446;2022-09-09T05:14:51;15.80;99.90
41294;DHT22;27037;52.010;4.446;2022-09-09T05:17:17;15.70;99.90
41294;DHT22;27037;52.010;4.446;2022-09-09T05:19:43;15.80;99.90
41294;DHT22;27037;52.010;4.446;2022-09-09T05:22:09;15.80;99.90
41294;DHT22;27037;52.010;4.446;2022-09-09T05:24:36;15.70;99.90
41294;DHT22;27037;52.010;4.446;2022-09-09T05:27:02;15.70;99.90
41294;DHT22;27037;52.010;4.446;2022-09-09T05:29:28;15.70;99.90
41294;DHT22;27037;52.010;4.446;2022-09-09T05:31:53;15.80;99.90
41294;DHT22;27037;52.010;4.446;2022-09-09T05:34:19;15.80;99.90
41294;DHT22;27037;52.010;4.446;2022-09-09T05:36:46;15.80;99.90
41294;DHT22;27037;52.010;4.446;2022-09-09T05:39:12;15.80;99.90
41294;DHT22;27037;52.010;4.446;2022-09-09T05:41:37;15.80;99.90
41294;DHT22;27037;52.010;4.446;2022-09-09T05:44:03;15.90;99.90
41294;DHT22;27037;52.010;4.446;2022-09-09T05:46:29;15.90;99.90
41294;DHT22;27037;52.010;4.446;2022-09-09T05:48:55;15.90;99.90
41294;DHT22;27037;52.010;4.446;2022-09-09T05:51:28;16.00;99.90
41294;DHT22;27037;52.010;4.446;2022-09-09T05:53:55;16.00;99.90
41294;DHT22;27037;52.010;4.446;2022-09-09T05:56:25;16.00;99.90
41294;DHT22;27037;52.010;4.446;2022-09-09T05:58:52;16.10;99.90
41294;DHT22;27037;52.010;4.446;2022-09-09T06:01:24;16.10;99.90
41294;DHT22;27037;52.010;4.446;2022-09-09T06:03:50;16.10;99.90
41294;DHT22;27037;52.010;4.446;2022-09-09T06:06:24;16.10;99.90
41294;DHT22;27037;52.010;4.446;2022-09-09T06:08:52;16.10;99.90
41294;DHT22;27037;52.010;4.446;2022-09-09T06:11:23;16.10;99.90
41294;DHT22;27037;52.010;4.446;2022-09-09T06:13:49;16.20;99.90
41294;DHT22;27037;52.010;4.446;2022-09-09T06:16:20;16.20;99.90
41294;DHT22;27037;52.010;4.446;2022-09-09T06:18:45;16.20;99.90
41294;DHT22;27037;52.010;4.446;2022-09-09T06:21:17;16.30;99.90
41294;DHT22;27037;52.010;4.446;2022-09-09T06:23:44;16.30;99.90
41294;DHT22;27037;52.010;4.446;2022-09-09T06:26:15;16.30;99.90
41294;DHT22;27037;52.010;4.446;2022-09-09T06:28:44;16.30;99.90
41294;DHT22;27037;52.010;4.446;2022-09-09T06:31:12;16.40;99.90
41294;DHT22;27037;52.010;4.446;2022-09-09T06:33:39;16.40;99.90
41294;DHT22;27037;52.010;4.446;2022-09-09T06:36:16;16.40;99.90
41294;DHT22;27037;52.010;4.446;2022-09-09T06:38:44;16.40;99.90
41294;DHT22;27037;52.010;4.446;2022-09-09T06:41:11;16.40;99.90
41294;DHT22;27037;52.010;4.446;2022-09-09T06:43:37;16.50;99.90
41294;DHT22;27037;52.010;4.446;2022-09-09T06:46:18;16.50;99.90
41294;DHT22;27037;52.010;4.446;2022-09-09T06:48:44;16.50;99.90
41294;DHT22;27037;52.010;4.446;2022-09-09T06:51:16;16.50;99.90
41294;DHT22;27037;52.010;4.446;2022-09-09T06:53:44;16.50;99.90
41294;DHT22;27037;52.010;4.446;2022-09-09T06:58:38;16.50;99.90
41294;DHT22;27037;52.010;4.446;2022-09-09T07:01:08;16.60;99.90
41294;DHT22;27037;52.010;4.446;2022-09-09T07:03:34;16.60;99.90
41294;DHT22;27037;52.010;4.446;2022-09-09T07:06:00;16.60;99.90
41294;DHT22;27037;52.010;4.446;2022-09-09T07:08:26;16.60;99.90
41294;DHT22;27037;52.010;4.446;2022-09-09T07:10:52;16.70;99.90
41294;DHT22;27037;52.010;4.446;2022-09-09T07:13:26;16.70;99.90
41294;DHT22;27037;52.010;4.446;2022-09-09T07:15:52;16.70;99.90
41294;DHT22;27037;52.010;4.446;2022-09-09T07:18:19;16.70;99.90
41294;DHT22;27037;52.010;4.446;2022-09-09T07:20:54;16.70;99.90
41294;DHT22;27037;52.010;4.446;2022-09-09T07:23:20;16.70;99.90
41294;DHT22;27037;52.010;4.446;2022-09-09T07:25:46;16.80;99.90
41294;DHT22;27037;52.010;4.446;2022-09-09T07:28:13;16.80;99.90
41294;DHT22;27037;52.010;4.446;2022-09-09T07:30:38;16.80;99.90
41294;DHT22;27037;52.010;4.446;2022-09-09T07:33:05;16.80;99.90
41294;DHT22;27037;52.010;4.446;2022-09-09T07:35:31;16.70;99.90
41294;DHT22;27037;52.010;4.446;2022-09-09T07:37:56;16.70;99.90
41294;DHT22;27037;52.010;4.446;2022-09-09T07:40:24;16.70;99.90
41294;DHT22;27037;52.010;4.446;2022-09-09T07:42:49;16.70;99.90
41294;DHT22;27037;52.010;4.446;2022-09-09T07:45:15;16.70;99.90
41294;DHT22;27037;52.010;4.446;2022-09-09T07:47:41;16.70;99.90
41294;DHT22;27037;52.010;4.446;2022-09-09T07:50:08;16.70;99.90
41294;DHT22;27037;52.010;4.446;2022-09-09T07:52:35;16.80;99.90
41294;DHT22;27037;52.010;4.446;2022-09-09T07:55:02;16.80;99.90
41294;DHT22;27037;52.010;4.446;2022-09-09T07:57:29;16.80;99.90
41294;DHT22;27037;52.010;4.446;2022-09-09T07:59:56;16.80;99.90
41294;DHT22;27037;52.010;4.446;2022-09-09T08:02:22;16.90;99.90
41294;DHT22;27037;52.010;4.446;2022-09-09T08:04:48;16.90;99.90
41294;DHT22;27037;52.010;4.446;2022-09-09T08:07:14;16.90;99.90
41294;DHT22;27037;52.010;4.446;2022-09-09T08:09:41;16.90;99.90
41294;DHT22;27037;52.010;4.446;2022-09-09T08:12:07;16.90;99.90
41294;DHT22;27037;52.010;4.446;2022-09-09T08:14:33;17.00;99.90
41294;DHT22;27037;52.010;4.446;2022-09-09T08:16:59;17.00;99.90
41294;DHT22;27037;52.010;4.446;2022-09-09T08:19:25;17.00;99.90
41294;DHT22;27037;52.010;4.446;2022-09-09T08:21:51;17.00;99.90
41294;DHT22;27037;52.010;4.446;2022-09-09T08:24:17;17.00;99.90
41294;DHT22;27037;52.010;4.446;2022-09-09T08:26:46;17.10;99.90
41294;DHT22;27037;52.010;4.446;2022-09-09T08:29:15;17.10;99.90
41294;DHT22;27037;52.010;4.446;2022-09-09T08:31:53;17.10;99.90
41294;DHT22;27037;52.010;4.446;2022-09-09T08:34:23;17.10;99.90
41294;DHT22;27037;52.010;4.446;2022-09-09T08:36:50;17.10;99.90
41294;DHT22;27037;52.010;4.446;2022-09-09T08:39:17;17.10;99.90
41294;DHT22;27037;52.010;4.446;2022-09-09T08:55:59;17.20;99.90
41294;DHT22;27037;52.010;4.446;2022-09-09T08:58:28;17.30;99.90
41294;DHT22;27037;52.010;4.446;2022-09-09T09:03:57;17.30;99.90
41294;DHT22;27037;52.010;4.446;2022-09-09T09:11:42;17.20;99.90
41294;DHT22;27037;52.010;4.446;2022-09-09T09:14:16;17.10;99.90
41294;DHT22;27037;52.010;4.446;2022-09-09T09:17:04;17.10;99.90
41294;DHT22;27037;52.010;4.446;2022-09-09T09:19:34;17.10;99.90
41294;DHT22;27037;52.010;4.446;2022-09-09T09:22:17;17.10;99.90
41294;DHT22;27037;52.010;4.446;2022-09-09T09:24:51;17.10;99.90
41294;DHT22;27037;52.010;4.446;2022-09-09T09:30:21;17.10;99.90
41294;DHT22;27037;52.010;4.446;2022-09-09T09:35:23;17.20;99.90
41294;DHT22;27037;52.010;4.446;2022-09-09T09:37:49;17.30;99.90
41294;DHT22;27037;52.010;4.446;2022-09-09T09:40:18;17.40;99.90
41294;DHT22;27037;52.010;4.446;2022-09-09T09:42:59;17.50;99.90
41294;DHT22;27037;52.010;4.446;2022-09-09T09:45:33;17.60;99.90
41294;DHT22;27037;52.010;4.446;2022-09-09T09:48:08;17.60;99.90
41294;DHT22;27037;52.010;4.446;2022-09-09T09:50:35;17.70;99.90
41294;DHT22;27037;52.010;4.446;2022-09-09T09:53:03;17.70;99.90
41294;DHT22;27037;52.010;4.446;2022-09-09T09:55:31;17.80;99.90
41294;DHT22;27037;52.010;4.446;2022-09-09T09:58:05;17.80;99.90
41294;DHT22;27037;52.010;4.446;2022-09-09T10:00:32;17.80;99.90
41294;DHT22;27037;52.010;4.446;2022-09-09T10:03:00;17.80;99.90
41294;DHT22;27037;52.010;4.446;2022-09-09T10:05:30;17.90;99.90
41294;DHT22;27037;52.010;4.446;2022-09-09T10:11:12;17.80;99.90
41294;DHT22;27037;52.010;4.446;2022-09-09T10:19:34;17.60;99.90
41294;DHT22;27037;52.010;4.446;2022-09-09T10:24:52;17.60;99.90
41294;DHT22;27037;52.010;4.446;2022-09-09T10:56:42;18.00;99.90
41294;DHT22;27037;52.010;4.446;2022-09-09T10:59:17;18.00;99.90
41294;DHT22;27037;52.010;4.446;2022-09-09T11:01:50;18.20;99.90
41294;DHT22;27037;52.010;4.446;2022-09-09T11:04:27;18.30;99.90
41294;DHT22;27037;52.010;4.446;2022-09-09T11:06:56;18.40;99.90
41294;DHT22;27037;52.010;4.446;2022-09-09T11:09:30;18.50;99.90
41294;DHT22;27037;52.010;4.446;2022-09-09T11:12:00;18.50;99.90
41294;DHT22;27037;52.010;4.446;2022-09-09T11:17:18;18.70;99.90
41294;DHT22;27037;52.010;4.446;2022-09-09T11:19:45;18.80;99.90
41294;DHT22;27037;52.010;4.446;2022-09-09T11:22:16;18.90;99.90
41294;DHT22;27037;52.010;4.446;2022-09-09T11:30:15;19.10;99.90
41294;DHT22;27037;52.010;4.446;2022-09-09T11:41:48;18.70;99.90
41294;DHT22;27037;52.010;4.446;2022-09-09T11:44:21;18.60;99.90
41294;DHT22;27037;52.010;4.446;2022-09-09T11:46:51;18.50;99.90
41294;DHT22;27037;52.010;4.446;2022-09-09T11:49:40;18.50;99.90
41294;DHT22;27037;52.010;4.446;2022-09-09T11:52:23;18.40;99.90
41294;DHT22;27037;52.010;4.446;2022-09-09T11:54:51;18.40;99.90
41294;DHT22;27037;52.010;4.446;2022-09-09T11:57:31;18.40;99.90
41294;DHT22;27037;52.010;4.446;2022-09-09T11:59:57;18.40;99.90
41294;DHT22;27037;52.010;4.446;2022-09-09T12:02:27;18.30;99.90
41294;DHT22;27037;52.010;4.446;2022-09-09T12:07:47;18.30;99.90
41294;DHT22;27037;52.010;4.446;2022-09-09T12:10:33;18.30;99.90
41294;DHT22;27037;52.010;4.446;2022-09-09T12:13:16;18.40;99.90
41294;DHT22;27037;52.010;4.446;2022-09-09T12:15:50;18.30;99.90
41294;DHT22;27037;52.010;4.446;2022-09-09T12:18:32;18.30;99.90
41294;DHT22;27037;52.010;4.446;2022-09-09T12:21:26;18.30;99.90
41294;DHT22;27037;52.010;4.446;2022-09-09T12:23:59;18.40;99.90
41294;DHT22;27037;52.010;4.446;2022-09-09T12:26:43;18.40;99.90
41294;DHT22;27037;52.010;4.446;2022-09-09T12:32:16;18.30;99.90
41294;DHT22;27037;52.010;4.446;2022-09-09T12:34:50;18.30;99.90
41294;DHT22;27037;52.010;4.446;2022-09-09T12:37:37;18.40;99.90
41294;DHT22;27037;52.010;4.446;2022-09-09T12:42:44;18.40;99.90
41294;DHT22;27037;52.010;4.446;2022-09-09T12:45:27;18.30;99.90
41294;DHT22;27037;52.010;4.446;2022-09-09T12:47:57;18.30;99.90
41294;DHT22;27037;52.010;4.446;2022-09-09T12:50:25;18.20;99.90
41294;DHT22;27037;52.010;4.446;2022-09-09T12:52:57;18.30;99.90
41294;DHT22;27037;52.010;4.446;2022-09-09T12:55:37;18.20;99.90
41294;DHT22;27037;52.010;4.446;2022-09-09T12:58:05;18.20;99.90
41294;DHT22;27037;52.010;4.446;2022-09-09T13:00:35;18.20;99.90
41294;DHT22;27037;52.010;4.446;2022-09-09T13:03:16;18.20;99.90
41294;DHT22;27037;52.010;4.446;2022-09-09T13:05:42;18.20;99.90
41294;DHT22;27037;52.010;4.446;2022-09-09T13:08:12;18.20;99.90
41294;DHT22;27037;52.010;4.446;2022-09-09T13:10:48;18.30;99.90
41294;DHT22;27037;52.010;4.446;2022-09-09T13:13:17;18.40;99.90
41294;DHT22;27037;52.010;4.446;2022-09-09T13:15:51;18.60;99.90
41294;DHT22;27037;52.010;4.446;2022-09-09T13:18:21;18.70;99.90
41294;DHT22;27037;52.010;4.446;2022-09-09T13:20:48;18.80;99.90
41294;DHT22;27037;52.010;4.446;2022-09-09T13:23:16;18.90;99.90
41294;DHT22;27037;52.010;4.446;2022-09-09T13:25:56;19.10;99.90
41294;DHT22;27037;52.010;4.446;2022-09-09T13:28:25;19.20;99.90
41294;DHT22;27037;52.010;4.446;2022-09-09T13:31:02;19.20;99.90
41294;DHT22;27037;52.010;4.446;2022-09-09T13:33:37;19.10;99.90
41294;DHT22;27037;52.010;4.446;2022-09-09T13:36:07;19.10;99.90
41294;DHT22;27037;52.010;4.446;2022-09-09T13:38:37;19.00;99.90
41294;DHT22;27037;52.010;4.446;2022-09-09T13:41:08;18.80;99.90
41294;DHT22;27037;52.010;4.446;2022-09-09T13:43:43;18.70;99.90
41294;DHT22;27037;52.010;4.446;2022-09-09T13:46:35;18.60;99.90
41294;DHT22;27037;52.010;4.446;2022-09-09T13:51:39;18.00;99.90
41294;DHT22;27037;52.010;4.446;2022-09-09T13:54:06;17.80;99.90
41294;DHT22;27037;52.010;4.446;2022-09-09T13:56:34;17.70;99.90
41294;DHT22;27037;52.010;4.446;2022-09-09T13:59:01;17.70;99.90
41294;DHT22;27037;52.010;4.446;2022-09-09T14:01:27;17.60;99.90
41294;DHT22;27037;52.010;4.446;2022-09-09T14:03:53;17.60;99.90
41294;DHT22;27037;52.010;4.446;2022-09-09T14:06:19;17.60;99.90
41294;DHT22;27037;52.010;4.446;2022-09-09T14:08:47;17.50;99.90
41294;DHT22;27037;52.010;4.446;2022-09-09T14:11:14;17.50;99.90
41294;DHT22;27037;52.010;4.446;2022-09-09T14:13:40;17.50;99.90
41294;DHT22;27037;52.010;4.446;2022-09-09T14:16:05;17.60;99.90
41294;DHT22;27037;52.010;4.446;2022-09-09T14:18:31;17.60;99.90
41294;DHT22;27037;52.010;4.446;2022-09-09T14:20:57;17.60;99.90
41294;DHT22;27037;52.010;4.446;2022-09-09T14:23:24;17.60;99.90
41294;DHT22;27037;52.010;4.446;2022-09-09T14:25:50;17.70;99.90
41294;DHT22;27037;52.010;4.446;2022-09-09T14:28:16;17.70;99.90
41294;DHT22;27037;52.010;4.446;2022-09-09T14:30:43;17.80;99.90
41294;DHT22;27037;52.010;4.446;2022-09-09T14:33:13;17.90;99.90
41294;DHT22;27037;52.010;4.446;2022-09-09T14:35:40;18.00;99.90
41294;DHT22;27037;52.010;4.446;2022-09-09T14:38:07;18.20;99.90
41294;DHT22;27037;52.010;4.446;2022-09-09T14:40:35;18.40;99.90
41294;DHT22;27037;52.010;4.446;2022-09-09T14:43:00;18.70;99.90
41294;DHT22;27037;52.010;4.446;2022-09-09T14:45:26;18.90;99.90
41294;DHT22;27037;52.010;4.446;2022-09-09T14:47:52;19.10;99.90
41294;DHT22;27037;52.010;4.446;2022-09-09T14:50:22;19.20;99.90
41294;DHT22;27037;52.010;4.446;2022-09-09T14:52:48;19.30;99.90
41294;DHT22;27037;52.010;4.446;2022-09-09T14:55:14;19.30;99.90
41294;DHT22;27037;52.010;4.446;2022-09-09T14:57:43;19.20;99.90
41294;DHT22;27037;52.010;4.446;2022-09-09T15:00:10;19.20;99.90
41294;DHT22;27037;52.010;4.446;2022-09-09T15:02:36;19.30;99.90
41294;DHT22;27037;52.010;4.446;2022-09-09T15:05:02;19.30;99.90
41294;DHT22;27037;52.010;4.446;2022-09-09T15:07:27;19.50;99.90
41294;DHT22;27037;52.010;4.446;2022-09-09T15:09:54;19.60;99.90
41294;DHT22;27037;52.010;4.446;2022-09-09T15:12:20;19.60;99.90
41294;DHT22;27037;52.010;4.446;2022-09-09T15:14:46;19.60;99.90
41294;DHT22;27037;52.010;4.446;2022-09-09T15:17:12;19.60;99.90
41294;DHT22;27037;52.010;4.446;2022-09-09T15:19:38;19.50;99.90
41294;DHT22;27037;52.010;4.446;2022-09-09T15:22:04;19.50;99.90
41294;DHT22;27037;52.010;4.446;2022-09-09T15:24:32;19.50;99.90
41294;DHT22;27037;52.010;4.446;2022-09-09T15:26:58;19.40;99.90
41294;DHT22;27037;52.010;4.446;2022-09-09T15:29:24;19.30;99.90
41294;DHT22;27037;52.010;4.446;2022-09-09T15:31:49;19.20;99.90
41294;DHT22;27037;52.010;4.446;2022-09-09T15:34:15;19.10;99.90
41294;DHT22;27037;52.010;4.446;2022-09-09T15:36:42;19.10;99.90
41294;DHT22;27037;52.010;4.446;2022-09-09T15:39:11;19.00;99.90
41294;DHT22;27037;52.010;4.446;2022-09-09T15:41:38;18.90;99.90
41294;DHT22;27037;52.010;4.446;2022-09-09T15:44:05;18.80;99.90
41294;DHT22;27037;52.010;4.446;2022-09-09T15:46:37;18.70;99.90
41294;DHT22;27037;52.010;4.446;2022-09-09T15:49:21;18.60;99.90
41294;DHT22;27037;52.010;4.446;2022-09-09T15:51:52;18.50;99.90
41294;DHT22;27037;52.010;4.446;2022-09-09T15:54:19;18.50;99.90
41294;DHT22;27037;52.010;4.446;2022-09-09T15:56:51;18.40;99.90
41294;DHT22;27037;52.010;4.446;2022-09-09T15:59:18;18.40;99.90
41294;DHT22;27037;52.010;4.446;2022-09-09T16:01:43;18.40;99.90
41294;DHT22;27037;52.010;4.446;2022-09-09T16:04:09;18.40;99.90
41294;DHT22;27037;52.010;4.446;2022-09-09T16:06:35;18.50;99.90
41294;DHT22;27037;52.010;4.446;2022-09-09T16:09:03;18.50;99.90
41294;DHT22;27037;52.010;4.446;2022-09-09T16:11:31;18.50;99.90
41294;DHT22;27037;52.010;4.446;2022-09-09T16:13:58;18.50;99.90
41294;DHT22;27037;52.010;4.446;2022-09-09T16:16:26;18.50;99.90
41294;DHT22;27037;52.010;4.446;2022-09-09T16:18:54;18.50;99.90
41294;DHT22;27037;52.010;4.446;2022-09-09T16:21:21;18.40;99.90
41294;DHT22;27037;52.010;4.446;2022-09-09T16:23:49;18.40;99.90
41294;DHT22;27037;52.010;4.446;2022-09-09T16:26:17;18.40;99.90
41294;DHT22;27037;52.010;4.446;2022-09-09T16:28:43;18.30;99.90
41294;DHT22;27037;52.010;4.446;2022-09-09T16:31:10;18.30;99.90
41294;DHT22;27037;52.010;4.446;2022-09-09T16:33:39;18.20;99.90
41294;DHT22;27037;52.010;4.446;2022-09-09T16:36:09;18.20;99.90
41294;DHT22;27037;52.010;4.446;2022-09-09T16:38:36;18.10;99.90
41294;DHT22;27037;52.010;4.446;2022-09-09T16:41:03;18.20;99.90
41294;DHT22;27037;52.010;4.446;2022-09-09T16:43:31;18.20;99.90
41294;DHT22;27037;52.010;4.446;2022-09-09T16:45:57;18.30;99.90
41294;DHT22;27037;52.010;4.446;2022-09-09T16:48:26;18.30;99.90
41294;DHT22;27037;52.010;4.446;2022-09-09T16:50:52;18.40;99.90
41294;DHT22;27037;52.010;4.446;2022-09-09T16:53:18;18.30;99.90
41294;DHT22;27037;52.010;4.446;2022-09-09T16:55:43;18.30;99.90
41294;DHT22;27037;52.010;4.446;2022-09-09T16:58:12;18.20;99.90
41294;DHT22;27037;52.010;4.446;2022-09-09T17:00:38;18.10;99.90
41294;DHT22;27037;52.010;4.446;2022-09-09T17:03:04;18.00;99.90
41294;DHT22;27037;52.010;4.446;2022-09-09T17:05:30;18.00;99.90
41294;DHT22;27037;52.010;4.446;2022-09-09T17:07:57;17.90;99.90
41294;DHT22;27037;52.010;4.446;2022-09-09T17:10:24;17.90;99.90
41294;DHT22;27037;52.010;4.446;2022-09-09T17:12:50;17.80;99.90
41294;DHT22;27037;52.010;4.446;2022-09-09T17:15:16;17.70;99.90
41294;DHT22;27037;52.010;4.446;2022-09-09T17:17:43;17.70;99.90
41294;DHT22;27037;52.010;4.446;2022-09-09T17:20:10;17.70;99.90
41294;DHT22;27037;52.010;4.446;2022-09-09T17:22:36;17.60;99.90
41294;DHT22;27037;52.010;4.446;2022-09-09T17:25:02;17.60;99.90
41294;DHT22;27037;52.010;4.446;2022-09-09T17:27:28;17.60;99.90
41294;DHT22;27037;52.010;4.446;2022-09-09T17:29:57;17.60;99.90
41294;DHT22;27037;52.010;4.446;2022-09-09T17:32:23;17.60;99.90
41294;DHT22;27037;52.010;4.446;2022-09-09T17:34:48;17.50;99.90
41294;DHT22;27037;52.010;4.446;2022-09-09T17:37:14;17.50;99.90
41294;DHT22;27037;52.010;4.446;2022-09-09T17:39:39;17.40;99.90
41294;DHT22;27037;52.010;4.446;2022-09-09T17:42:05;17.40;99.90
41294;DHT22;27037;52.010;4.446;2022-09-09T17:44:33;17.40;99.90
41294;DHT22;27037;52.010;4.446;2022-09-09T17:46:58;17.40;99.90
41294;DHT22;27037;52.010;4.446;2022-09-09T17:49:24;17.40;99.90
41294;DHT22;27037;52.010;4.446;2022-09-09T17:51:50;17.30;99.90
41294;DHT22;27037;52.010;4.446;2022-09-09T17:54:18;17.30;99.90
41294;DHT22;27037;52.010;4.446;2022-09-09T17:56:45;17.30;99.90
41294;DHT22;27037;52.010;4.446;2022-09-09T17:59:13;17.30;99.90
41294;DHT22;27037;52.010;4.446;2022-09-09T18:01:42;17.30;99.90
41294;DHT22;27037;52.010;4.446;2022-09-09T18:04:10;17.30;99.90
41294;DHT22;27037;52.010;4.446;2022-09-09T18:06:40;17.30;99.90
41294;DHT22;27037;52.010;4.446;2022-09-09T18:09:08;17.20;99.90
41294;DHT22;27037;52.010;4.446;2022-09-09T18:11:37;17.20;99.90
41294;DHT22;27037;52.010;4.446;2022-09-09T18:14:07;17.10;99.90